Time;durP1;ratioP1;P1;durP2;ratioP2;P2;SDS_P1;SDS_P2;PMS_P1;PMS_P2;Temp;Humidity;BMP_temperature;BMP_pressure;BME280_temperature;BME280_humidity;BME280_pressure;Samples;Min_cycle;Max_cycle;Signal;HPM_P1;HPM_P2
2021/12/10 00:00:15;;;;;;;118.85;37.03;;;;;;;;;;5047554;28;20124;-65
2021/12/10 00:02:46;;;;;;;101.55;32.78;;;;;;;;;;5051655;28;20033;-64
2021/12/10 00:05:13;;;;;;;;;;;;;;;;;;5054323;28;20101;-65
2021/12/10 00:07:41;;;;;;;121.97;35.58;;;;;;;;;;5054530;28;19923;-66
2021/12/10 00:10:10;;;;;;;115.32;36.83;;;;;;;;;;5065470;28;20395;-65
2021/12/10 00:12:43;;;;;;;120.10;37.05;;;;;;;;;;5064913;28;20115;-62
2021/12/10 00:15:10;;;;;;;125.40;37.35;;;;;;;;;;5061128;28;20033;-66
2021/12/10 00:17:35;;;;;;;111.07;33.17;;;;;;;;;;5060770;28;20040;-65
2021/12/10 00:20:04;;;;;;;105.53;35.50;;;;;;;;;;5057394;28;20017;-64
2021/12/10 00:22:35;;;;;;;128.07;39.72;;;;;;;;;;5044339;28;20033;-61
2021/12/10 00:25:00;;;;;;;141.25;44.97;;;;;;;;;;5053524;28;20075;-63
2021/12/10 00:27:32;;;;;;;126.20;44.13;;;;;;;;;;5069497;28;20051;-60
2021/12/10 00:30:06;;;;;;;115.38;38.47;;;;;;;;;;5059298;28;20033;-60
2021/12/10 00:32:47;;;;;;;122.70;38.80;;;;;;;;;;5061774;28;20197;-62
2021/12/10 00:35:22;;;;;;;122.00;41.78;;;;;;;;;;5056729;28;20037;-64
2021/12/10 00:37:48;;;;;;;127.35;38.50;;;;;;;;;;5041759;28;20024;-60
2021/12/10 00:40:15;;;;;;;96.90;28.92;;;;;;;;;;5052905;28;20562;-61
2021/12/10 00:42:41;;;;;;;91.60;30.90;;;;;;;;;;5053010;28;20037;-66
2021/12/10 00:45:10;;;;;;;102.72;33.75;;;;;;;;;;5053075;28;20369;-61
2021/12/10 00:47:36;;;;;;;81.90;26.83;;;;;;;;;;5052934;28;20040;-65
2021/12/10 00:50:05;;;;;;;105.63;33.35;;;;;;;;;;5052752;28;20044;-62
2021/12/10 00:52:31;;;;;;;95.68;32.58;;;;;;;;;;5045843;28;20030;-63
2021/12/10 00:54:57;;;;;;;103.38;32.85;;;;;;;;;;5052140;28;20025;-61
2021/12/10 00:57:22;;;;;;;92.82;30.67;;;;;;;;;;5052800;28;20032;-58
2021/12/10 00:59:50;;;;;;;90.85;29.30;;;;;;;;;;5056379;28;20099;-62
2021/12/10 01:02:23;;;;;;;91.88;30.67;;;;;;;;;;5055727;28;20028;-59
2021/12/10 01:04:52;;;;;;;92.45;33.75;;;;;;;;;;5058964;28;20032;-64
2021/12/10 01:07:22;;;;;;;97.85;32.67;;;;;;;;;;5052651;28;20495;-63
2021/12/10 01:09:50;;;;;;;98.28;33.90;;;;;;;;;;5052446;28;20128;-60
2021/12/10 01:12:24;;;;;;;102.15;32.95;;;;;;;;;;5056534;28;20033;-65
2021/12/10 01:28:36;;;;;;;99.10;34.83;;;;;;;;;;5063625;28;20119;-65
2021/12/10 01:31:02;;;;;;;104.03;34.45;;;;;;;;;;5059596;28;20074;-64
2021/12/10 01:33:28;;;;;;;98.45;32.45;;;;;;;;;;5048616;28;20475;-61
2021/12/10 01:35:56;;;;;;;90.95;30.13;;;;;;;;;;5058192;28;20086;-62
2021/12/10 01:38:22;;;;;;;90.30;32.03;;;;;;;;;;5059309;28;20111;-55
2021/12/10 01:40:52;;;;;;;85.65;31.48;;;;;;;;;;5059501;28;20044;-61
2021/12/10 01:43:25;;;;;;;90.97;32.05;;;;;;;;;;5063175;28;20475;-64
2021/12/10 01:46:06;;;;;;;90.85;31.17;;;;;;;;;;5059233;28;20377;-63
2021/12/10 01:48:43;;;;;;;95.13;35.88;;;;;;;;;;5052152;28;20064;-59
2021/12/10 01:51:12;;;;;;;97.72;34.30;;;;;;;;;;5052164;28;20059;-62
2021/12/10 01:53:41;;;;;;;95.88;33.10;;;;;;;;;;5052312;28;20025;-62
2021/12/10 01:56:19;;;;;;;96.65;33.28;;;;;;;;;;5046561;28;20025;-64
2021/12/10 01:58:46;;;;;;;89.47;32.55;;;;;;;;;;5051855;28;20033;-62
2021/12/10 02:01:19;;;;;;;86.82;32.08;;;;;;;;;;5056304;28;20049;-63
2021/12/10 02:03:45;;;;;;;84.40;30.88;;;;;;;;;;5049390;28;20021;-66
2021/12/10 02:06:12;;;;;;;94.95;32.13;;;;;;;;;;5050196;28;20032;-65
2021/12/10 02:08:38;;;;;;;86.45;30.90;;;;;;;;;;5061649;28;20032;-63
2021/12/10 02:11:06;;;;;;;89.38;29.75;;;;;;;;;;5067717;28;20111;-63
2021/12/10 02:13:32;;;;;;;82.00;29.73;;;;;;;;;;5067460;28;20066;-65
2021/12/10 02:15:58;;;;;;;84.53;32.90;;;;;;;;;;5063309;28;20056;-62
2021/12/10 02:18:24;;;;;;;79.85;29.50;;;;;;;;;;5059227;28;20025;-58
2021/12/10 02:20:52;;;;;;;88.32;30.02;;;;;;;;;;5067288;28;20047;-65
2021/12/10 02:23:18;;;;;;;78.82;30.00;;;;;;;;;;5063015;28;20033;-65
2021/12/10 02:25:44;;;;;;;92.18;32.00;;;;;;;;;;5060744;28;20035;-59
2021/12/10 02:28:11;;;;;;;101.18;33.00;;;;;;;;;;5056689;28;20084;-63
2021/12/10 02:30:39;;;;;;;89.88;31.73;;;;;;;;;;5058790;28;20448;-59
2021/12/10 02:33:06;;;;;;;86.55;29.52;;;;;;;;;;5058486;28;20025;-62
2021/12/10 02:35:33;;;;;;;80.18;28.70;;;;;;;;;;5049324;28;20495;-65
2021/12/10 02:37:59;;;;;;;84.13;31.45;;;;;;;;;;5066704;28;20034;-66
2021/12/10 02:40:28;;;;;;;79.35;29.83;;;;;;;;;;5064610;28;20043;-63
2021/12/10 02:42:56;;;;;;;90.70;31.55;;;;;;;;;;5055548;28;20064;-61
2021/12/10 02:45:24;;;;;;;85.10;30.38;;;;;;;;;;5055393;28;20020;-66
2021/12/10 02:47:50;;;;;;;86.63;30.42;;;;;;;;;;5054019;28;20040;-62
2021/12/10 02:50:19;;;;;;;70.70;26.17;;;;;;;;;;5055274;28;20044;-65
2021/12/10 02:52:45;;;;;;;66.65;26.58;;;;;;;;;;5071719;28;20498;-66
2021/12/10 02:55:14;;;;;;;71.97;27.60;;;;;;;;;;5071675;28;20032;-64
2021/12/10 02:57:40;;;;;;;72.37;27.77;;;;;;;;;;5049827;28;20025;-60
2021/12/10 03:00:08;;;;;;;71.88;28.25;;;;;;;;;;5054711;28;20033;-66
2021/12/10 03:02:34;;;;;;;73.53;26.85;;;;;;;;;;5054769;28;20029;-64
2021/12/10 03:05:00;;;;;;;78.63;30.90;;;;;;;;;;5052965;28;20047;-62
2021/12/10 03:07:26;;;;;;;75.72;28.90;;;;;;;;;;5061120;28;20121;-59
2021/12/10 03:09:53;;;;;;;70.55;27.27;;;;;;;;;;5057546;28;20056;-61
2021/12/10 03:12:20;;;;;;;77.55;27.35;;;;;;;;;;5055043;28;20481;-64
2021/12/10 03:14:49;;;;;;;73.90;28.10;;;;;;;;;;5041691;28;20026;-60
2021/12/10 03:17:24;;;;;;;81.95;30.33;;;;;;;;;;5067118;28;20483;-62
2021/12/10 03:19:50;;;;;;;86.22;29.83;;;;;;;;;;5066686;28;20460;-63
2021/12/10 03:22:15;;;;;;;93.20;32.13;;;;;;;;;;5054769;28;20033;-64
2021/12/10 03:24:41;;;;;;;89.53;31.15;;;;;;;;;;5054679;28;20111;-63
2021/12/10 03:27:10;;;;;;;90.60;29.83;;;;;;;;;;5054538;28;20025;-63
2021/12/10 03:29:38;;;;;;;82.60;29.25;;;;;;;;;;5053183;28;20040;-63
2021/12/10 03:32:09;;;;;;;81.00;29.40;;;;;;;;;;5056440;28;20392;-61
2021/12/10 03:34:35;;;;;;;76.32;29.40;;;;;;;;;;5051781;28;20389;-62
2021/12/10 03:37:01;;;;;;;83.43;29.83;;;;;;;;;;5061844;28;20468;-62
2021/12/10 03:39:27;;;;;;;99.53;34.45;;;;;;;;;;5062394;28;20035;-63
2021/12/10 03:41:56;;;;;;;92.47;33.92;;;;;;;;;;5058166;28;20132;-61
2021/12/10 03:44:22;;;;;;;81.82;28.35;;;;;;;;;;5062577;28;20024;-57
2021/12/10 03:46:48;;;;;;;80.18;29.45;;;;;;;;;;5062239;28;20446;-59
2021/12/10 03:49:14;;;;;;;77.07;30.30;;;;;;;;;;5053969;28;20040;-63
2021/12/10 03:51:40;;;;;;;78.75;31.27;;;;;;;;;;5058042;28;20388;-63
2021/12/10 03:54:07;;;;;;;82.03;30.52;;;;;;;;;;5058105;28;20040;-64
2021/12/10 03:56:34;;;;;;;87.93;29.30;;;;;;;;;;5057842;28;20480;-64
2021/12/10 03:59:03;;;;;;;89.05;31.65;;;;;;;;;;5054099;28;20025;-64
2021/12/10 04:01:33;;;;;;;80.68;29.25;;;;;;;;;;5053010;28;20039;-62
2021/12/10 04:04:01;;;;;;;75.07;28.93;;;;;;;;;;5042036;28;20503;-63
2021/12/10 04:06:27;;;;;;;78.47;30.52;;;;;;;;;;5054683;28;20280;-61
2021/12/10 04:08:56;;;;;;;81.22;28.83;;;;;;;;;;5059026;28;20029;-62
2021/12/10 04:11:21;;;;;;;84.47;29.25;;;;;;;;;;5055688;28;20082;-65
2021/12/10 04:13:50;;;;;;;78.13;30.13;;;;;;;;;;5053708;28;20032;-60
2021/12/10 04:16:17;;;;;;;80.03;28.60;;;;;;;;;;5053648;28;20049;-57
2021/12/10 04:18:44;;;;;;;78.20;28.73;;;;;;;;;;5053681;28;20036;-60
2021/12/10 04:21:12;;;;;;;98.43;34.10;;;;;;;;;;5052631;28;20087;-58
2021/12/10 04:23:39;;;;;;;73.03;25.83;;;;;;;;;;5052296;28;20118;-56
2021/12/10 04:26:05;;;;;;;79.22;29.60;;;;;;;;;;5053422;28;20439;-64
2021/12/10 04:28:32;;;;;;;75.88;28.55;;;;;;;;;;5052848;28;20056;-65
2021/12/10 04:30:58;;;;;;;72.43;28.27;;;;;;;;;;5053195;28;20040;-65
2021/12/10 04:33:26;;;;;;;90.90;29.73;;;;;;;;;;5047026;28;20021;-65
2021/12/10 04:35:54;;;;;;;89.55;30.38;;;;;;;;;;5057347;28;20032;-64
2021/12/10 04:38:21;;;;;;;82.60;29.88;;;;;;;;;;5051153;28;20112;-65
2021/12/10 04:40:49;;;;;;;90.43;30.45;;;;;;;;;;5052444;28;20041;-64
2021/12/10 04:43:22;;;;;;;77.72;27.95;;;;;;;;;;5053317;28;20033;-64
2021/12/10 04:45:47;;;;;;;87.30;30.48;;;;;;;;;;5053233;28;20049;-65
2021/12/10 04:48:13;;;;;;;84.38;29.55;;;;;;;;;;5052697;28;20037;-60
2021/12/10 04:50:39;;;;;;;84.68;28.17;;;;;;;;;;5053010;28;20029;-56
2021/12/10 04:53:08;;;;;;;95.22;32.40;;;;;;;;;;5052950;28;20586;-59
2021/12/10 04:55:34;;;;;;;84.07;29.55;;;;;;;;;;5053129;28;20044;-58
2021/12/10 04:58:00;;;;;;;84.20;29.75;;;;;;;;;;5052764;28;20029;-62
2021/12/10 05:00:34;;;;;;;88.05;31.05;;;;;;;;;;5052693;28;20167;-60
2021/12/10 05:03:00;;;;;;;68.53;26.45;;;;;;;;;;5052622;28;20047;-63
2021/12/10 05:05:27;;;;;;;84.05;32.42;;;;;;;;;;5046355;28;20037;-65
2021/12/10 05:07:53;;;;;;;96.03;31.90;;;;;;;;;;5048669;28;20031;-65
2021/12/10 05:10:19;;;;;;;89.00;31.63;;;;;;;;;;5047501;28;20024;-65
2021/12/10 05:12:46;;;;;;;90.60;33.08;;;;;;;;;;5052423;28;20143;-64
2021/12/10 05:15:17;;;;;;;96.15;31.27;;;;;;;;;;5052481;28;20032;-62
2021/12/10 05:17:42;;;;;;;89.03;30.98;;;;;;;;;;5052666;28;20033;-63
2021/12/10 05:20:13;;;;;;;80.40;31.33;;;;;;;;;;5051188;28;20036;-65
2021/12/10 05:22:41;;;;;;;94.13;31.73;;;;;;;;;;5052424;28;20114;-62
2021/12/10 05:25:07;;;;;;;88.88;30.50;;;;;;;;;;5056513;28;20029;-65
2021/12/10 05:27:33;;;;;;;126.80;40.67;;;;;;;;;;5056361;28;20028;-63
2021/12/10 05:29:59;;;;;;;188.55;56.17;;;;;;;;;;5056020;28;20029;-62
2021/12/10 05:32:25;;;;;;;218.55;70.55;;;;;;;;;;5056425;28;20032;-61
2021/12/10 05:34:51;;;;;;;122.43;39.10;;;;;;;;;;5049040;28;20087;-65
2021/12/10 05:37:17;;;;;;;111.03;36.33;;;;;;;;;;5052239;28;20499;-65
2021/12/10 05:39:43;;;;;;;165.25;48.53;;;;;;;;;;5045429;28;20119;-65
2021/12/10 05:42:09;;;;;;;177.25;49.00;;;;;;;;;;5052219;28;20420;-62
2021/12/10 05:44:36;;;;;;;108.85;34.85;;;;;;;;;;5058220;28;20028;-64
2021/12/10 05:47:02;;;;;;;102.72;35.28;;;;;;;;;;5067708;28;20480;-65
2021/12/10 05:49:28;;;;;;;115.75;34.80;;;;;;;;;;5064001;28;20449;-65
2021/12/10 05:51:54;;;;;;;123.25;39.10;;;;;;;;;;5063929;28;20032;-63
2021/12/10 05:54:19;;;;;;;119.88;37.22;;;;;;;;;;5066430;28;20033;-64
2021/12/10 05:56:45;;;;;;;100.72;33.42;;;;;;;;;;5052648;28;20041;-64
2021/12/10 05:59:10;;;;;;;82.75;28.75;;;;;;;;;;5054640;28;20090;-61
2021/12/10 06:01:36;;;;;;;91.45;33.17;;;;;;;;;;5060090;28;20048;-62
2021/12/10 06:04:02;;;;;;;87.07;31.30;;;;;;;;;;5051814;28;20519;-65
2021/12/10 06:06:30;;;;;;;84.57;29.20;;;;;;;;;;5052094;28;20036;-63
2021/12/10 06:08:57;;;;;;;79.38;28.55;;;;;;;;;;5049824;28;20029;-61
2021/12/10 06:11:24;;;;;;;85.53;30.10;;;;;;;;;;5049528;28;20086;-66
2021/12/10 06:13:50;;;;;;;79.28;28.25;;;;;;;;;;5062571;28;20032;-65
2021/12/10 06:16:16;;;;;;;86.60;31.50;;;;;;;;;;5053025;28;20461;-64
2021/12/10 06:18:42;;;;;;;74.78;28.55;;;;;;;;;;5051263;28;20111;-63
2021/12/10 06:21:08;;;;;;;71.57;25.73;;;;;;;;;;5052318;28;20132;-65
2021/12/10 06:23:34;;;;;;;74.03;27.52;;;;;;;;;;5064118;28;20637;-64
2021/12/10 06:26:00;;;;;;;80.78;28.42;;;;;;;;;;5062241;28;20025;-64
2021/12/10 06:28:25;;;;;;;76.22;26.90;;;;;;;;;;5053701;28;20033;-64
2021/12/10 06:30:52;;;;;;;71.25;28.05;;;;;;;;;;5060307;28;20079;-65
2021/12/10 06:33:21;;;;;;;78.43;27.00;;;;;;;;;;5061157;28;20448;-63
2021/12/10 06:35:49;;;;;;;87.78;27.05;;;;;;;;;;5067307;28;20032;-65
2021/12/10 06:38:15;;;;;;;83.38;29.02;;;;;;;;;;5052086;28;20079;-58
2021/12/10 06:40:44;;;;;;;81.65;27.88;;;;;;;;;;5051944;28;20045;-65
2021/12/10 06:43:11;;;;;;;72.25;26.55;;;;;;;;;;5058564;28;20119;-62
2021/12/10 06:45:38;;;;;;;73.50;26.65;;;;;;;;;;5058832;28;20067;-64
2021/12/10 06:48:06;;;;;;;85.50;28.45;;;;;;;;;;5063134;28;20039;-65
2021/12/10 06:50:36;;;;;;;74.13;27.63;;;;;;;;;;5068748;28;20021;-62
2021/12/10 06:53:02;;;;;;;70.95;26.13;;;;;;;;;;5070934;28;20047;-65
2021/12/10 06:55:29;;;;;;;83.90;28.85;;;;;;;;;;5069183;28;20440;-62
2021/12/10 06:57:56;;;;;;;34.95;15.00;;;;;;;;;;5049434;28;20112;-63
2021/12/10 07:00:44;;;;;;;84.45;27.52;;;;;;;;;;5057315;28;20379;-64
2021/12/10 07:03:13;;;;;;;83.20;27.00;;;;;;;;;;5055203;28;20117;-65
2021/12/10 07:05:40;;;;;;;79.22;28.70;;;;;;;;;;5055068;28;20356;-66
2021/12/10 07:08:06;;;;;;;76.70;26.23;;;;;;;;;;5055434;28;20480;-65
2021/12/10 07:10:32;;;;;;;90.65;32.63;;;;;;;;;;5050786;28;20032;-64
2021/12/10 07:12:57;;;;;;;83.82;29.60;;;;;;;;;;5063371;28;20031;-64
2021/12/10 07:15:23;;;;;;;87.93;29.27;;;;;;;;;;5066399;28;20035;-63
2021/12/10 07:17:50;;;;;;;76.07;27.05;;;;;;;;;;5047500;28;20391;-61
2021/12/10 07:20:21;;;;;;;72.60;28.60;;;;;;;;;;5050137;28;20037;-63
2021/12/10 07:22:47;;;;;;;82.57;30.30;;;;;;;;;;5060796;28;20028;-64
2021/12/10 07:25:13;;;;;;;75.20;26.92;;;;;;;;;;5061933;28;20395;-62
2021/12/10 07:27:38;;;;;;;80.07;29.63;;;;;;;;;;5058513;28;20044;-65
2021/12/10 07:30:06;;;;;;;77.07;29.85;;;;;;;;;;5059371;28;20033;-66
2021/12/10 07:32:32;;;;;;;86.72;29.70;;;;;;;;;;5059110;28;20039;-65
2021/12/10 07:34:58;;;;;;;69.53;22.95;;;;;;;;;;5054543;28;20112;-62
2021/12/10 07:37:24;;;;;;;70.35;25.70;;;;;;;;;;5054313;28;20049;-65
2021/12/10 07:39:49;;;;;;;78.47;24.77;;;;;;;;;;5047849;28;20124;-66
2021/12/10 07:42:15;;;;;;;82.45;30.45;;;;;;;;;;5055268;28;20082;-63
2021/12/10 07:44:41;;;;;;;84.47;27.73;;;;;;;;;;5054816;28;20499;-65
2021/12/10 07:47:12;;;;;;;61.80;22.83;;;;;;;;;;5065817;28;20035;-65
2021/12/10 07:49:38;;;;;;;;;;;;;;;;;;5070079;28;20368;-62
2021/12/10 07:52:14;;;;;;;77.15;27.85;;;;;;;;;;5069825;28;20397;-62
2021/12/10 07:54:40;;;;;;;95.22;31.35;;;;;;;;;;5064383;28;20029;-65
2021/12/10 07:57:06;;;;;;;84.78;30.15;;;;;;;;;;5051963;28;20175;-66
2021/12/10 07:59:31;;;;;;;71.95;25.10;;;;;;;;;;5049684;28;20494;-62
2021/12/10 08:01:57;;;;;;;64.57;23.42;;;;;;;;;;5046844;28;20044;-63
2021/12/10 08:04:22;;;;;;;80.18;29.10;;;;;;;;;;5050823;28;20036;-65
2021/12/10 08:06:48;;;;;;;83.88;28.77;;;;;;;;;;5053344;28;20028;-63
2021/12/10 08:09:21;;;;;;;80.53;28.42;;;;;;;;;;5051294;28;20352;-65
2021/12/10 08:11:47;;;;;;;78.93;29.20;;;;;;;;;;5048294;28;20028;-66
2021/12/10 08:14:12;;;;;;;85.57;27.88;;;;;;;;;;5053734;28;20375;-66
2021/12/10 08:16:39;;;;;;;86.88;29.40;;;;;;;;;;5053772;28;20162;-61
2021/12/10 08:19:08;;;;;;;71.78;27.13;;;;;;;;;;5053183;28;20525;-63
2021/12/10 08:21:34;;;;;;;75.18;26.88;;;;;;;;;;5053419;28;20299;-55
2021/12/10 08:24:03;;;;;;;76.60;24.85;;;;;;;;;;5052921;28;20593;-65
2021/12/10 08:26:29;;;;;;;77.38;26.73;;;;;;;;;;5050913;28;20044;-62
2021/12/10 08:28:56;;;;;;;83.07;27.10;;;;;;;;;;5045111;28;20135;-64
2021/12/10 08:31:22;;;;;;;84.80;28.67;;;;;;;;;;5048041;28;20037;-62
2021/12/10 08:33:49;;;;;;;75.18;24.20;;;;;;;;;;5052712;28;20025;-65
2021/12/10 08:36:18;;;;;;;83.03;27.10;;;;;;;;;;5049573;28;20037;-64
2021/12/10 08:38:43;;;;;;;79.05;27.73;;;;;;;;;;5051096;28;20037;-64
2021/12/10 08:41:15;;;;;;;66.03;21.50;;;;;;;;;;5052391;28;20407;-66
2021/12/10 08:43:42;;;;;;;62.28;23.95;;;;;;;;;;5051532;28;20033;-66
2021/12/10 08:46:08;;;;;;;61.72;22.70;;;;;;;;;;5052965;28;20020;-63
2021/12/10 08:48:34;;;;;;;54.10;21.27;;;;;;;;;;5052820;28;20027;-64
2021/12/10 08:51:08;;;;;;;78.35;27.17;;;;;;;;;;5049210;28;20408;-64
2021/12/10 08:53:34;;;;;;;65.47;25.58;;;;;;;;;;5053344;28;20483;-64
2021/12/10 08:56:00;;;;;;;80.68;27.60;;;;;;;;;;5058447;28;20037;-65
2021/12/10 08:58:27;;;;;;;73.25;27.42;;;;;;;;;;5052821;28;20054;-62
2021/12/10 09:00:58;;;;;;;65.50;23.52;;;;;;;;;;5049169;28;20025;-65
2021/12/10 09:03:24;;;;;;;57.00;23.20;;;;;;;;;;5051954;28;20463;-65
2021/12/10 09:05:50;;;;;;;51.28;19.33;;;;;;;;;;5052714;28;20036;-64
2021/12/10 09:08:15;;;;;;;78.78;27.60;;;;;;;;;;5052383;28;20064;-65
2021/12/10 09:10:43;;;;;;;74.65;24.30;;;;;;;;;;5051758;28;20021;-65
2021/12/10 09:13:14;;;;;;;70.97;25.60;;;;;;;;;;5052559;28;20017;-60
2021/12/10 09:15:52;;;;;;;90.75;29.83;;;;;;;;;;5052692;28;20407;-63
2021/12/10 09:18:18;;;;;;;78.78;28.80;;;;;;;;;;5052042;28;20413;-63
2021/12/10 09:20:48;;;;;;;87.63;28.92;;;;;;;;;;5052505;28;20138;-66
2021/12/10 09:23:16;;;;;;;76.72;29.63;;;;;;;;;;5051547;28;20108;-66
2021/12/10 09:25:42;;;;;;;73.90;27.98;;;;;;;;;;5052429;28;20040;-65
2021/12/10 09:28:09;;;;;;;82.25;28.23;;;;;;;;;;5052226;28;20031;-66
2021/12/10 09:30:36;;;;;;;88.45;30.02;;;;;;;;;;5052549;28;20020;-66
2021/12/10 09:33:03;;;;;;;53.05;22.65;;;;;;;;;;5052011;28;20029;-63
2021/12/10 09:35:31;;;;;;;83.63;30.20;;;;;;;;;;5052165;28;20391;-65
2021/12/10 09:37:58;;;;;;;81.85;27.95;;;;;;;;;;5052103;28;20484;-65
2021/12/10 09:40:31;;;;;;;83.93;29.02;;;;;;;;;;5052146;28;20122;-65
2021/12/10 09:42:58;;;;;;;68.93;26.55;;;;;;;;;;5052179;28;20052;-66
2021/12/10 09:45:27;;;;;;;80.20;30.08;;;;;;;;;;5051968;28;20112;-65
2021/12/10 09:47:52;;;;;;;81.93;29.60;;;;;;;;;;5051803;28;20031;-66
2021/12/10 09:50:22;;;;;;;74.55;27.08;;;;;;;;;;5052054;28;20025;-65
2021/12/10 09:52:48;;;;;;;70.85;28.08;;;;;;;;;;5051997;28;20017;-66
2021/12/10 09:55:16;;;;;;;86.72;28.15;;;;;;;;;;5052066;28;20025;-63
2021/12/10 09:57:45;;;;;;;79.35;28.77;;;;;;;;;;5052013;28;20029;-59
2021/12/10 10:00:23;;;;;;;80.38;30.15;;;;;;;;;;5052103;28;20033;-65
2021/12/10 10:02:49;;;;;;;84.88;28.95;;;;;;;;;;5052064;28;20060;-61
2021/12/10 10:05:17;;;;;;;84.18;30.42;;;;;;;;;;5051754;28;20044;-65
2021/12/10 10:07:43;;;;;;;86.30;29.98;;;;;;;;;;5051789;28;20060;-60
2021/12/10 10:10:14;;;;;;;83.93;29.92;;;;;;;;;;5051800;28;20060;-64
2021/12/10 10:12:44;;;;;;;61.63;21.77;;;;;;;;;;5051991;28;20190;-64
2021/12/10 10:15:12;;;;;;;;;;;;;;;;;;5052329;28;20479;-65
2021/12/10 10:17:38;;;;;;;70.47;26.67;;;;;;;;;;5051751;28;19917;-66
2021/12/10 10:20:05;;;;;;;57.03;22.38;;;;;;;;;;5051593;28;20032;-65
2021/12/10 10:22:31;;;;;;;76.43;25.67;;;;;;;;;;5051977;28;20492;-66
2021/12/10 10:24:58;;;;;;;78.63;28.52;;;;;;;;;;5053985;28;20037;-65
2021/12/10 10:27:28;;;;;;;84.85;29.50;;;;;;;;;;5055163;28;20017;-65
2021/12/10 10:30:23;;;;;;;79.63;28.90;;;;;;;;;;5055347;28;20051;-66
2021/12/10 10:32:49;;;;;;;90.05;31.48;;;;;;;;;;5055572;28;20082;-62
2021/12/10 10:35:27;;;;;;;82.10;27.98;;;;;;;;;;5055369;28;20529;-61
2021/12/10 10:37:54;;;;;;;84.88;28.77;;;;;;;;;;5054753;28;20414;-64
2021/12/10 10:40:26;;;;;;;80.53;30.00;;;;;;;;;;5059633;28;20049;-63
2021/12/10 10:42:52;;;;;;;82.40;29.48;;;;;;;;;;5062693;28;20106;-61
2021/12/10 10:45:24;;;;;;;90.10;32.20;;;;;;;;;;5055535;28;20075;-65
2021/12/10 10:47:51;;;;;;;87.82;32.38;;;;;;;;;;5050412;28;20498;-68
2021/12/10 10:50:24;;;;;;;87.72;30.02;;;;;;;;;;5050209;28;20120;-62
2021/12/10 10:52:56;;;;;;;83.25;29.67;;;;;;;;;;5056066;28;20034;-65
2021/12/10 10:55:29;;;;;;;73.75;26.52;;;;;;;;;;5047089;28;20029;-64
2021/12/10 10:57:59;;;;;;;81.35;29.80;;;;;;;;;;5054272;28;20040;-63
2021/12/10 11:00:39;;;;;;;66.05;24.35;;;;;;;;;;5060675;28;20027;-64
2021/12/10 11:03:09;;;;;;;;;;;;;;;;;;5055796;28;20431;-64
2021/12/10 11:05:45;;;;;;;55.72;21.92;;;;;;;;;;5054638;28;19916;-65
2021/12/10 11:08:10;;;;;;;65.55;22.67;;;;;;;;;;5054807;28;20479;-66
2021/12/10 11:10:41;;;;;;;83.57;29.33;;;;;;;;;;5054708;28;20037;-64
2021/12/10 11:13:07;;;;;;;;;;;;;;;;;;5042512;28;20111;-61
2021/12/10 11:15:33;;;;;;;35.25;16.05;;;;;;;;;;5054621;28;19921;-62
2021/12/10 11:17:58;;;;;;;80.22;28.25;;;;;;;;;;5054309;28;20039;-65
2021/12/10 11:20:28;;;;;;;73.53;25.33;;;;;;;;;;5062521;28;20033;-63
2021/12/10 11:23:02;;;;;;;88.45;32.00;;;;;;;;;;5053416;28;20029;-65
2021/12/10 11:25:35;;;;;;;91.70;31.83;;;;;;;;;;5054552;28;20033;-66
2021/12/10 11:28:14;;;;;;;67.00;25.38;;;;;;;;;;5054230;28;20468;-64
2021/12/10 11:30:46;;;;;;;94.22;29.48;;;;;;;;;;5054653;28;20029;-64
2021/12/10 11:33:15;;;;;;;83.90;26.08;;;;;;;;;;5042619;28;20029;-63
2021/12/10 11:35:45;;;;;;;90.70;31.08;;;;;;;;;;5053837;28;20442;-57
2021/12/10 11:38:18;;;;;;;86.68;32.10;;;;;;;;;;5054600;28;20025;-64
2021/12/10 11:41:01;;;;;;;71.63;25.25;;;;;;;;;;5054764;28;20500;-64
2021/12/10 11:43:52;;;;;;;79.88;27.65;;;;;;;;;;5054358;28;20450;-64
2021/12/10 11:46:43;;;;;;;83.28;29.95;;;;;;;;;;5054016;28;20083;-63
2021/12/10 11:49:35;;;;;;;54.47;21.52;;;;;;;;;;5052285;28;20033;-63
2021/12/10 11:52:03;;;;;;;67.65;22.70;;;;;;;;;;5054132;28;20037;-64
2021/12/10 11:54:54;;;;;;;95.53;33.05;;;;;;;;;;5054179;28;20028;-62
2021/12/10 11:57:20;;;;;;;78.97;28.30;;;;;;;;;;5053891;28;20021;-64
2021/12/10 12:00:04;;;;;;;98.40;33.05;;;;;;;;;;5054190;28;20071;-65
2021/12/10 12:02:45;;;;;;;77.55;26.52;;;;;;;;;;5053604;28;20025;-64
2021/12/10 12:05:15;;;;;;;45.40;18.77;;;;;;;;;;5053886;28;20025;-63
2021/12/10 12:07:48;;;;;;;92.93;32.85;;;;;;;;;;5053945;28;20025;-64
2021/12/10 12:10:26;;;;;;;115.32;35.70;;;;;;;;;;5053503;28;20445;-65
2021/12/10 12:13:10;;;;;;;88.43;30.10;;;;;;;;;;5053656;28;20029;-64
2021/12/10 12:15:37;;;;;;;101.65;33.55;;;;;;;;;;5053556;28;20040;-66
2021/12/10 12:18:32;;;;;;;86.28;33.10;;;;;;;;;;5053574;28;20029;-62
2021/12/10 12:26:37;;;;;;;94.50;33.95;;;;;;;;;;5053488;28;20130;-63
2021/12/10 12:29:08;;;;;;;79.70;29.27;;;;;;;;;;5053409;28;20025;-64
2021/12/10 12:31:55;;;;;;;85.88;32.88;;;;;;;;;;5052680;28;20017;-64
2021/12/10 12:34:23;;;;;;;97.20;33.00;;;;;;;;;;5054490;28;20028;-65
2021/12/10 12:36:51;;;;;;;82.38;29.73;;;;;;;;;;5053964;28;20071;-66
2021/12/10 12:39:41;;;;;;;84.57;28.55;;;;;;;;;;5053370;28;20092;-66
2021/12/10 12:42:19;;;;;;;86.90;31.85;;;;;;;;;;5053237;28;20036;-66
2021/12/10 12:44:47;;;;;;;81.75;30.00;;;;;;;;;;5050976;28;20091;-65
2021/12/10 12:47:14;;;;;;;90.85;31.75;;;;;;;;;;5049508;28;20378;-66
2021/12/10 12:49:49;;;;;;;92.65;31.17;;;;;;;;;;5063726;28;20037;-66
2021/12/10 12:52:16;;;;;;;92.72;32.30;;;;;;;;;;5045458;28;20033;-66
2021/12/10 12:55:00;;;;;;;92.68;32.45;;;;;;;;;;5043982;28;20032;-66
2021/12/10 12:57:39;;;;;;;101.32;34.72;;;;;;;;;;5052238;28;20029;-66
2021/12/10 13:00:09;;;;;;;71.07;25.13;;;;;;;;;;5053485;28;20031;-67
2021/12/10 13:02:34;;;;;;;83.07;32.63;;;;;;;;;;5057411;28;20040;-66
2021/12/10 13:05:00;;;;;;;92.40;31.40;;;;;;;;;;5049720;28;20112;-66
2021/12/10 13:07:27;;;;;;;90.25;31.05;;;;;;;;;;5045989;28;20078;-66
2021/12/10 13:09:59;;;;;;;94.70;31.02;;;;;;;;;;5052196;28;20024;-65
2021/12/10 13:15:25;;;;;;;90.65;31.10;;;;;;;;;;5051246;28;20028;-66
2021/12/10 13:17:59;;;;;;;99.32;33.70;;;;;;;;;;5048288;28;20106;-66
2021/12/10 13:20:31;;;;;;;90.65;30.20;;;;;;;;;;5044031;28;20499;-63
2021/12/10 13:23:01;;;;;;;108.47;38.50;;;;;;;;;;5047428;28;20423;-65
2021/12/10 13:25:29;;;;;;;96.97;33.72;;;;;;;;;;5052930;28;20078;-65
2021/12/10 13:27:57;;;;;;;95.63;33.35;;;;;;;;;;5052306;28;20025;-65
2021/12/10 13:30:33;;;;;;;92.20;31.38;;;;;;;;;;5052383;28;20040;-66
2021/12/10 13:32:58;;;;;;;86.43;30.55;;;;;;;;;;5052539;28;20029;-66
2021/12/10 13:35:28;;;;;;;94.25;33.03;;;;;;;;;;5052118;28;20048;-65
2021/12/10 13:37:56;;;;;;;101.80;34.80;;;;;;;;;;5052268;28;20023;-65
2021/12/10 13:40:22;;;;;;;112.18;34.85;;;;;;;;;;5052156;28;20102;-65
2021/12/10 13:42:49;;;;;;;93.85;33.28;;;;;;;;;;5051571;28;20032;-65
2021/12/10 13:45:20;;;;;;;98.90;33.65;;;;;;;;;;5046474;28;20028;-63
2021/12/10 13:47:51;;;;;;;108.97;33.83;;;;;;;;;;5051576;28;20025;-62
2021/12/10 13:50:24;;;;;;;87.13;30.73;;;;;;;;;;5052357;28;20021;-61
2021/12/10 13:53:04;;;;;;;97.75;31.92;;;;;;;;;;5052862;28;20021;-61
2021/12/10 13:55:56;;;;;;;83.22;29.77;;;;;;;;;;5051959;28;20029;-65
2021/12/10 13:58:38;;;;;;;83.57;29.90;;;;;;;;;;5052188;28;20456;-62
2021/12/10 14:01:17;;;;;;;90.97;32.47;;;;;;;;;;5056968;28;20033;-65
2021/12/10 14:03:52;;;;;;;104.32;35.65;;;;;;;;;;5049386;28;20396;-64
2021/12/10 14:06:32;;;;;;;96.68;30.95;;;;;;;;;;5056294;28;20490;-63
2021/12/10 14:09:26;;;;;;;101.63;34.33;;;;;;;;;;5056363;28;20075;-62
2021/12/10 14:12:18;;;;;;;87.78;30.63;;;;;;;;;;5056438;28;20044;-64
2021/12/10 14:14:51;;;;;;;92.63;31.15;;;;;;;;;;5045846;28;20391;-65
2021/12/10 14:17:28;;;;;;;80.90;29.17;;;;;;;;;;5054765;28;20063;-65
2021/12/10 14:19:55;;;;;;;94.32;33.38;;;;;;;;;;5055386;28;20547;-63
2021/12/10 14:22:50;;;;;;;97.45;31.20;;;;;;;;;;5055666;28;20436;-64
2021/12/10 14:25:26;;;;;;;103.43;32.20;;;;;;;;;;5037051;28;20583;-66
2021/12/10 14:27:57;;;;;;;124.15;37.00;;;;;;;;;;5055501;28;20388;-62
2021/12/10 14:30:36;;;;;;;;;;;;;;;;;;5056188;28;20029;-66
2021/12/10 14:33:10;;;;;;;109.75;35.38;;;;;;;;;;5056519;28;20398;-66
2021/12/10 14:35:44;;;;;;;93.88;33.20;;;;;;;;;;5055631;28;20032;-63
2021/12/10 14:38:12;;;;;;;111.03;36.22;;;;;;;;;;5042285;28;20021;-63
2021/12/10 14:40:52;;;;;;;110.15;36.90;;;;;;;;;;5055485;28;20523;-63
2021/12/10 14:43:40;;;;;;;137.05;47.05;;;;;;;;;;5056632;28;20029;-65
2021/12/10 14:46:14;;;;;;;107.57;37.10;;;;;;;;;;5056007;28;20025;-62
2021/12/10 14:49:03;;;;;;;78.82;30.48;;;;;;;;;;5055436;28;20071;-65
2021/12/10 14:51:29;;;;;;;88.43;31.30;;;;;;;;;;5055310;28;20035;-64